createdAt,value
2022-10-09T00:02:10.011Z,14.22
2022-10-09T00:12:38.091Z,14.22
2022-10-09T00:23:06.667Z,14.17
2022-10-09T00:33:34.765Z,13.98
2022-10-09T00:44:04.803Z,14.08
2022-10-09T00:54:36.754Z,14.25
2022-10-09T01:05:05.013Z,14.17
2022-10-09T01:15:36.310Z,14.05
2022-10-09T01:26:16.215Z,13.95
2022-10-09T01:36:46.306Z,13.85
2022-10-09T01:47:17.945Z,13.77
2022-10-09T01:57:52.222Z,13.61
2022-10-09T02:08:23.091Z,13.41
2022-10-09T02:18:56.325Z,13.15
2022-10-09T02:29:25.042Z,13.08
2022-10-09T02:39:53.102Z,13.29
2022-10-09T02:50:21.207Z,13.35
2022-10-09T03:00:50.416Z,13.27
2022-10-09T03:11:20.042Z,13.14
2022-10-09T03:21:48.082Z,13.07
2022-10-09T03:32:16.354Z,13.07
2022-10-09T03:42:44.371Z,13.12
2022-10-09T03:53:11.981Z,13.19
2022-10-09T04:03:40.043Z,13.24
2022-10-09T04:14:06.645Z,13.19
2022-10-09T04:24:34.733Z,13.09
2022-10-09T04:35:02.813Z,12.90
2022-10-09T04:45:29.236Z,12.74
2022-10-09T04:55:57.276Z,12.54
2022-10-09T05:06:24.637Z,12.55
2022-10-09T05:17:12.952Z,12.48
2022-10-09T05:27:41.992Z,12.50
2022-10-09T05:38:08.389Z,12.41
2022-10-09T05:48:36.978Z,12.26
2022-10-09T05:59:07.082Z,12.50
2022-10-09T06:09:35.041Z,12.65
2022-10-09T06:20:03.187Z,12.67
2022-10-09T06:30:29.663Z,12.50
2022-10-09T06:41:02.477Z,12.41
2022-10-09T06:51:31.614Z,12.32
2022-10-09T07:01:59.808Z,12.29
2022-10-09T07:12:28.733Z,12.23
2022-10-09T07:22:56.771Z,12.34
2022-10-09T07:33:25.107Z,12.71
2022-10-09T07:43:51.506Z,13.04
2022-10-09T07:54:19.762Z,13.34
2022-10-09T08:04:56.204Z,13.57
2022-10-09T08:15:24.603Z,13.57
2022-10-09T08:25:52.618Z,13.80
2022-10-09T08:36:20.664Z,13.94
2022-10-09T08:47:03.904Z,14.04
2022-10-09T08:57:35.822Z,13.98
2022-10-09T09:08:17.051Z,14.10
2022-10-09T09:18:55.635Z,14.26
2022-10-09T09:29:25.307Z,14.24
2022-10-09T09:40:35.396Z,14.38
2022-10-09T09:51:05.060Z,14.46
2022-10-09T10:01:33.860Z,14.25
2022-10-09T10:12:04.484Z,14.32
2022-10-09T10:22:32.979Z,14.56
2022-10-09T10:33:06.826Z,14.73
2022-10-09T10:43:42.315Z,14.84
2022-10-09T10:54:22.792Z,14.72
2022-10-09T11:04:59.298Z,14.76
2022-10-09T11:15:37.748Z,14.69
2022-10-09T11:26:18.284Z,14.74
2022-10-09T11:36:47.479Z,14.74
2022-10-09T11:47:23.148Z,14.85
2022-10-09T11:57:51.621Z,14.88
2022-10-09T12:08:27.699Z,14.94
2022-10-09T12:18:56.202Z,14.85
2022-10-09T12:29:29.816Z,14.74
2022-10-09T12:40:07.483Z,14.67
2022-10-09T12:50:36.591Z,14.53
2022-10-09T13:01:08.687Z,14.48
2022-10-09T13:11:40.593Z,14.84
2022-10-09T13:22:22.972Z,14.88
2022-10-09T13:32:51.161Z,14.76
2022-10-09T13:43:26.186Z,14.65
2022-10-09T13:53:54.816Z,14.58
2022-10-09T14:04:23.198Z,14.56
2022-10-09T14:14:51.257Z,14.66
2022-10-09T14:25:19.485Z,14.72
2022-10-09T14:35:47.652Z,14.92
2022-10-09T14:46:18.119Z,15.14
2022-10-09T14:56:46.210Z,15.28
2022-10-09T15:07:14.368Z,15.45
2022-10-09T15:17:42.382Z,15.38
2022-10-09T15:28:11.178Z,15.41
2022-10-09T15:38:39.233Z,15.31
2022-10-09T15:49:07.557Z,15.07
2022-10-09T15:59:38.199Z,14.94
2022-10-09T16:10:06.721Z,14.69
2022-10-09T16:20:36.194Z,14.55
2022-10-09T16:31:04.945Z,14.29
2022-10-09T16:41:34.649Z,14.00
2022-10-09T16:52:04.357Z,13.74
2022-10-09T17:02:30.748Z,13.44
2022-10-09T17:12:59.114Z,13.25
2022-10-09T17:23:27.184Z,12.98
2022-10-09T17:33:59.782Z,12.60
2022-10-09T17:44:30.263Z,12.29
2022-10-09T17:54:58.385Z,12.13
2022-10-09T18:05:24.721Z,11.90
2022-10-09T18:15:52.820Z,11.79
2022-10-09T18:26:19.881Z,11.72
2022-10-09T18:36:47.946Z,11.58
2022-10-09T18:47:19.317Z,11.46
2022-10-09T18:57:48.681Z,11.18
2022-10-09T19:08:16.729Z,10.96
2022-10-09T19:18:44.769Z,10.83
2022-10-09T19:29:12.925Z,10.71
2022-10-09T19:39:48.259Z,10.73
2022-10-09T19:50:16.454Z,10.67
2022-10-09T20:00:46.772Z,10.44
2022-10-09T20:11:15.778Z,9.84
2022-10-09T20:21:43.838Z,9.74
2022-10-09T20:32:12.580Z,9.67
2022-10-09T20:42:40.538Z,9.74
2022-10-09T20:53:10.837Z,9.61
2022-10-09T21:03:40.004Z,9.52
2022-10-09T21:14:08.853Z,9.37
2022-10-09T21:24:37.882Z,9.18
2022-10-09T21:35:06.296Z,9.25
2022-10-09T21:45:33.597Z,9.15
2022-10-09T21:56:03.705Z,9.26
2022-10-09T22:06:31.728Z,9.37
2022-10-09T22:16:59.705Z,9.45
2022-10-09T22:27:28.005Z,9.55
2022-10-09T22:37:57.413Z,9.64
2022-10-09T22:48:25.399Z,9.75
2022-10-09T22:58:54.346Z,9.60
2022-10-09T23:09:23.849Z,9.53
2022-10-09T23:19:52.142Z,9.55
2022-10-09T23:30:20.365Z,9.50
2022-10-09T23:40:57.935Z,9.50
2022-10-09T23:51:27.745Z,9.30
